Time;durP1;ratioP1;P1;durP2;ratioP2;P2;SDS_P1;SDS_P2;PMS_P1;PMS_P2;Temp;Humidity;BMP_temperature;BMP_pressure;BME280_temperature;BME280_humidity;BME280_pressure;Samples;Min_cycle;Max_cycle;Signal;HPM_P1;HPM_P2
2023/12/29 00:00:33;;;;;;;0.50;0.10;;;10.40;99.90;;;;;;5055051;28;20460;-73
2023/12/29 00:03:01;;;;;;;0.83;0.77;;;10.40;99.90;;;;;;5062395;28;20812;-72
2023/12/29 00:05:30;;;;;;;0.50;0.20;;;10.40;99.90;;;;;;5054519;28;20445;-73
2023/12/29 00:07:58;;;;;;;0.50;0.10;;;10.40;99.90;;;;;;5054600;28;20459;-72
2023/12/29 00:10:26;;;;;;;0.50;0.10;;;10.40;99.90;;;;;;5049230;28;20505;-73
2023/12/29 00:12:54;;;;;;;0.70;0.70;;;10.40;99.90;;;;;;5054605;28;20969;-73
2023/12/29 00:15:22;;;;;;;0.50;0.10;;;10.40;99.90;;;;;;5054205;28;20950;-73
2023/12/29 00:17:52;;;;;;;2.30;0.67;;;10.40;99.90;;;;;;5054500;28;20489;-72
2023/12/29 00:20:20;;;;;;;0.70;0.40;;;10.40;99.90;;;;;;5049651;28;20461;-73
2023/12/29 00:23:05;;;;;;;0.50;0.10;;;10.40;99.90;;;;;;5046640;28;20441;-72
2023/12/29 00:25:34;;;;;;;0.50;0.10;;;;;;;;;;5054258;28;20809;-72
2023/12/29 00:28:01;;;;;;;0.50;0.10;;;10.40;99.90;;;;;;5055099;28;20938;-72
2023/12/29 00:30:30;;;;;;;0.50;0.10;;;10.40;99.90;;;;;;5061279;28;20457;-73
2023/12/29 00:33:18;;;;;;;0.50;0.20;;;10.40;99.90;;;;;;5061470;28;20435;-73
2023/12/29 00:35:46;;;;;;;0.50;0.10;;;10.40;99.90;;;;;;5057381;28;20822;-73
2023/12/29 00:38:15;;;;;;;0.50;0.10;;;10.40;99.90;;;;;;5053907;28;20494;-73
2023/12/29 00:40:43;;;;;;;0.50;0.10;;;10.30;99.90;;;;;;5053888;28;20449;-72
2023/12/29 00:43:11;;;;;;;0.50;0.20;;;10.30;99.90;;;;;;5054105;28;20802;-72
2023/12/29 00:45:39;;;;;;;0.50;0.10;;;10.30;99.90;;;;;;5053195;28;20441;-73
2023/12/29 00:48:09;;;;;;;2.33;0.60;;;10.30;99.90;;;;;;5053663;28;20545;-73
2023/12/29 00:50:37;;;;;;;0.83;0.40;;;10.30;99.90;;;;;;5053786;28;20531;-74
2023/12/29 00:53:05;;;;;;;0.50;0.10;;;10.20;99.90;;;;;;5049623;28;20549;-73
2023/12/29 00:55:34;;;;;;;0.50;0.30;;;10.20;99.90;;;;;;5053609;28;20487;-71
2023/12/29 00:58:02;;;;;;;14.43;8.23;;;10.20;99.90;;;;;;5053660;28;20495;-73
2023/12/29 01:00:30;;;;;;;0.60;0.40;;;10.30;99.90;;;;;;5053921;28;20811;-72
2023/12/29 01:02:59;;;;;;;0.60;0.20;;;;;;;;;;5053482;28;20540;-72
2023/12/29 01:05:27;;;;;;;0.50;0.10;;;10.20;99.90;;;;;;5053239;28;20498;-73
2023/12/29 01:07:55;;;;;;;2.53;2.37;;;10.20;99.90;;;;;;5046866;28;20481;-73
2023/12/29 01:10:24;;;;;;;0.50;0.10;;;10.20;99.90;;;;;;5053345;28;20448;-73
2023/12/29 01:12:53;;;;;;;0.97;0.97;;;10.20;99.90;;;;;;5053271;28;20535;-73
2023/12/29 01:15:21;;;;;;;0.50;0.10;;;10.20;99.90;;;;;;5052841;28;20454;-73
2023/12/29 01:17:49;;;;;;;1.83;0.60;;;10.10;99.90;;;;;;5052851;28;20484;-72
2023/12/29 01:20:17;;;;;;;0.80;0.60;;;10.20;99.90;;;;;;5053010;28;20506;-73
2023/12/29 01:22:45;;;;;;;0.50;0.20;;;10.10;99.90;;;;;;5052904;28;20940;-72
2023/12/29 01:25:12;;;;;;;0.70;0.40;;;10.10;99.90;;;;;;5051672;28;20554;-73
2023/12/29 01:27:40;;;;;;;1.10;0.87;;;10.10;99.90;;;;;;5052533;28;20460;-73
2023/12/29 01:30:10;;;;;;;0.50;0.10;;;10.10;99.90;;;;;;5052994;28;20444;-73
2023/12/29 01:32:38;;;;;;;0.50;0.10;;;10.00;99.90;;;;;;5053170;28;20450;-73
2023/12/29 01:35:07;;;;;;;0.50;0.10;;;10.10;99.90;;;;;;5044524;28;20441;-73
2023/12/29 01:37:35;;;;;;;0.50;0.10;;;10.00;99.90;;;;;;5052470;28;20485;-73
2023/12/29 01:40:03;;;;;;;0.50;0.10;;;10.00;99.90;;;;;;5052460;28;20472;-73
2023/12/29 01:42:31;;;;;;;0.60;0.40;;;10.10;99.90;;;;;;5051842;28;20461;-74
2023/12/29 01:44:59;;;;;;;0.50;0.10;;;10.10;99.90;;;;;;5052467;28;21000;-72
2023/12/29 01:47:28;;;;;;;0.70;0.53;;;10.10;99.90;;;;;;5052397;28;20464;-73
2023/12/29 01:49:57;;;;;;;0.50;0.20;;;10.10;99.90;;;;;;5053334;28;20494;-72
2023/12/29 01:52:24;;;;;;;0.60;0.30;;;10.10;99.90;;;;;;5053237;28;21027;-72
2023/12/29 01:54:54;;;;;;;0.50;0.10;;;10.10;99.90;;;;;;5053967;28;20462;-73
2023/12/29 01:57:22;;;;;;;0.90;0.40;;;10.10;99.90;;;;;;5052326;28;21067;-73
2023/12/29 01:59:50;;;;;;;0.50;0.20;;;8.60;99.90;;;;;;5046772;28;20950;-74
2023/12/29 02:02:18;;;;;;;0.50;0.23;;;10.10;99.90;;;;;;5067087;28;20447;-73
2023/12/29 02:04:48;;;;;;;0.50;0.10;;;10.10;99.90;;;;;;5073772;28;20479;-74
2023/12/29 02:07:16;;;;;;;0.50;0.10;;;10.10;99.90;;;;;;5060690;28;20515;-72
2023/12/29 02:09:45;;;;;;;0.57;0.33;;;10.20;99.90;;;;;;5069625;28;20697;-73
2023/12/29 02:12:13;;;;;;;1.43;0.80;;;10.20;99.90;;;;;;5068033;28;20447;-73
2023/12/29 02:14:41;;;;;;;2.50;1.03;;;10.20;99.90;;;;;;5061015;28;20856;-73
2023/12/29 02:17:16;;;;;;;0.50;0.17;;;10.20;99.90;;;;;;5055463;28;21045;-73
2023/12/29 02:19:49;;;;;;;0.50;0.10;;;10.20;99.90;;;;;;5063667;28;20464;-73
2023/12/29 02:22:17;;;;;;;0.50;0.20;;;10.20;99.90;;;;;;5065954;28;20527;-73
2023/12/29 02:24:47;;;;;;;0.50;0.10;;;10.20;99.90;;;;;;5072162;28;20945;-73
2023/12/29 02:27:24;;;;;;;0.50;0.10;;;10.20;99.90;;;;;;5063759;28;20522;-73
2023/12/29 02:30:05;;;;;;;0.70;0.20;;;10.20;99.90;;;;;;5071626;28;20443;-73
2023/12/29 02:32:36;;;;;;;0.50;0.10;;;10.20;99.90;;;;;;5066319;28;20455;-73
2023/12/29 02:35:07;;;;;;;0.50;0.10;;;10.30;99.90;;;;;;5062784;28;20453;-73
2023/12/29 02:37:37;;;;;;;0.60;0.37;;;10.20;99.90;;;;;;5069963;28;20486;-73
2023/12/29 02:40:09;;;;;;;0.97;0.63;;;10.20;99.90;;;;;;5057056;28;20436;-73
2023/12/29 02:42:37;;;;;;;0.50;0.10;;;10.20;99.90;;;;;;5072599;28;20545;-73
2023/12/29 02:45:05;;;;;;;0.50;0.10;;;10.20;99.90;;;;;;5072083;28;21070;-73
2023/12/29 02:47:33;;;;;;;0.50;0.10;;;10.20;99.90;;;;;;5060326;28;20856;-73
2023/12/29 02:50:01;;;;;;;1.47;0.40;;;10.20;99.90;;;;;;5070101;28;20439;-73
2023/12/29 02:52:29;;;;;;;0.50;0.20;;;10.20;99.90;;;;;;5071971;28;20612;-73
2023/12/29 02:54:57;;;;;;;0.50;0.10;;;10.20;99.90;;;;;;5071806;28;20884;-73
2023/12/29 02:57:26;;;;;;;0.50;0.20;;;10.20;99.90;;;;;;5057818;22;20539;-74
2023/12/29 02:59:54;;;;;;;1.13;0.97;;;10.20;99.90;;;;;;5032092;28;20490;-74
2023/12/29 03:02:23;;;;;;;0.60;0.30;;;10.20;99.90;;;;;;5032701;28;20543;-75
2023/12/29 03:04:51;;;;;;;2.10;0.77;;;10.20;99.90;;;;;;5025423;28;21011;-74
2023/12/29 03:07:19;;;;;;;0.50;0.10;;;10.20;99.90;;;;;;5019076;28;20554;-74
2023/12/29 03:09:47;;;;;;;0.50;0.10;;;10.20;99.90;;;;;;5024013;28;20850;-74
2023/12/29 03:12:15;;;;;;;0.50;0.20;;;10.20;99.90;;;;;;5035084;28;20449;-74
2023/12/29 03:14:46;;;;;;;0.50;0.10;;;10.20;99.90;;;;;;5016596;28;20449;-75
2023/12/29 03:17:14;;;;;;;0.50;0.10;;;10.20;99.90;;;;;;5024121;28;20459;-74
2023/12/29 03:19:42;;;;;;;0.50;0.10;;;10.20;99.90;;;;;;5023590;28;20478;-74
2023/12/29 03:22:10;;;;;;;0.50;0.10;;;10.20;99.90;;;;;;5035159;28;20466;-74
2023/12/29 03:24:41;;;;;;;0.50;0.10;;;10.20;99.90;;;;;;5028290;28;20459;-75
2023/12/29 03:27:09;;;;;;;0.60;0.43;;;10.10;99.90;;;;;;5035514;28;20478;-74
2023/12/29 03:29:37;;;;;;;0.60;0.50;;;10.10;99.90;;;;;;5036027;28;20757;-74
2023/12/29 03:32:07;;;;;;;0.60;0.30;;;10.00;99.90;;;;;;5026865;28;20497;-74
2023/12/29 03:34:35;;;;;;;0.50;0.10;;;10.00;99.90;;;;;;5023058;28;20849;-73
2023/12/29 03:37:03;;;;;;;0.50;0.10;;;10.10;99.90;;;;;;5039705;28;20573;-75
2023/12/29 03:39:35;;;;;;;0.50;0.17;;;10.10;99.90;;;;;;5039723;28;20539;-75
2023/12/29 03:42:03;;;;;;;0.50;0.10;;;10.10;99.90;;;;;;5026306;28;20451;-75
2023/12/29 03:44:31;;;;;;;0.50;0.20;;;10.10;99.90;;;;;;5030061;28;20448;-74
2023/12/29 03:46:59;;;;;;;0.50;0.10;;;10.10;99.90;;;;;;5034959;28;21061;-75
2023/12/29 03:49:29;;;;;;;2.30;0.53;;;10.10;99.90;;;;;;5026717;28;20454;-74
2023/12/29 03:51:57;;;;;;;0.50;0.10;;;10.10;99.90;;;;;;5017798;28;20474;-74
2023/12/29 03:54:24;;;;;;;2.57;0.83;;;10.10;99.90;;;;;;5028845;28;20980;-74
2023/12/29 03:56:52;;;;;;;1.47;1.37;;;10.00;99.90;;;;;;5026579;28;20509;-75
2023/12/29 03:59:20;;;;;;;0.70;0.20;;;10.00;99.90;;;;;;5034785;28;20533;-74
2023/12/29 04:01:48;;;;;;;0.50;0.10;;;10.00;99.90;;;;;;5035157;28;20557;-74
2023/12/29 04:04:16;;;;;;;0.50;0.10;;;10.00;99.90;;;;;;5018737;28;20513;-74
2023/12/29 04:06:45;;;;;;;0.60;0.23;;;10.00;99.90;;;;;;5017400;28;20506;-74
2023/12/29 04:09:13;;;;;;;0.50;0.10;;;10.00;99.90;;;;;;5028400;28;20459;-74
2023/12/29 04:11:41;;;;;;;0.87;0.20;;;10.00;99.90;;;;;;5035734;28;20503;-74
2023/12/29 04:14:12;;;;;;;0.50;0.10;;;10.00;99.90;;;;;;5018860;28;20879;-74
2023/12/29 04:16:40;;;;;;;1.53;0.30;;;10.00;99.90;;;;;;5023377;28;20873;-73
2023/12/29 04:19:08;;;;;;;0.50;0.10;;;10.00;99.90;;;;;;5013656;28;21064;-74
2023/12/29 04:21:36;;;;;;;0.50;0.20;;;10.00;99.90;;;;;;5020728;28;20448;-74
2023/12/29 04:24:06;;;;;;;0.50;0.10;;;9.90;99.90;;;;;;5026354;28;20809;-73
2023/12/29 04:26:36;;;;;;;0.50;0.10;;;9.90;99.90;;;;;;5026952;28;20539;-73
2023/12/29 04:29:04;;;;;;;0.80;0.33;;;9.90;99.90;;;;;;5030631;28;20449;-73
2023/12/29 04:31:32;;;;;;;0.50;0.10;;;9.90;99.90;;;;;;5020805;28;20539;-73
2023/12/29 04:34:00;;;;;;;0.97;0.70;;;9.90;99.90;;;;;;5035103;28;20451;-74
2023/12/29 04:36:28;;;;;;;0.60;0.30;;;9.90;99.90;;;;;;5020534;28;20461;-74
2023/12/29 04:38:56;;;;;;;0.50;0.20;;;9.90;99.90;;;;;;5023272;28;20823;-74
2023/12/29 04:41:25;;;;;;;0.50;0.30;;;9.90;99.90;;;;;;5024386;28;20497;-74
2023/12/29 04:43:53;;;;;;;0.50;0.20;;;9.90;99.90;;;;;;5025623;28;20924;-74
2023/12/29 04:46:21;;;;;;;0.90;0.20;;;9.90;99.90;;;;;;5029490;28;20464;-74
2023/12/29 04:48:48;;;;;;;5.23;0.50;;;9.90;99.90;;;;;;5030968;28;20447;-73
2023/12/29 04:51:16;;;;;;;0.53;0.27;;;9.90;99.90;;;;;;5025703;28;20442;-74
2023/12/29 04:53:44;;;;;;;0.63;0.60;;;9.90;99.90;;;;;;5026682;28;20447;-74
2023/12/29 04:56:12;;;;;;;0.50;0.13;;;10.10;99.90;;;;;;5032921;28;20566;-74
2023/12/29 04:58:41;;;;;;;0.50;0.10;;;9.90;99.90;;;;;;5033126;28;20550;-73
2023/12/29 05:01:09;;;;;;;0.50;0.10;;;10.00;99.90;;;;;;5014718;28;20485;-75
2023/12/29 05:03:37;;;;;;;0.60;0.30;;;10.00;99.90;;;;;;5032585;28;20534;-74
2023/12/29 05:06:05;;;;;;;1.20;0.60;;;9.90;99.90;;;;;;5032604;28;20561;-74
2023/12/29 05:08:34;;;;;;;0.50;0.10;;;9.90;99.90;;;;;;5033069;28;20444;-74
2023/12/29 05:11:02;;;;;;;0.50;0.10;;;9.90;99.90;;;;;;5023935;28;20468;-74
2023/12/29 05:13:30;;;;;;;0.60;0.33;;;10.00;99.90;;;;;;5028946;28;20476;-74
2023/12/29 05:15:59;;;;;;;1.30;0.40;;;10.00;99.90;;;;;;5032017;28;20528;-74
2023/12/29 05:18:29;;;;;;;1.17;0.93;;;10.10;99.90;;;;;;5013252;28;20565;-74
2023/12/29 05:20:57;;;;;;;0.70;0.40;;;10.00;99.90;;;;;;5026473;28;20486;-73
2023/12/29 05:23:26;;;;;;;11.30;4.70;;;10.00;99.90;;;;;;5023561;28;20538;-73
2023/12/29 05:25:54;;;;;;;4.10;1.27;;;10.00;99.90;;;;;;5013024;28;20535;-74
2023/12/29 05:28:21;;;;;;;0.50;0.10;;;10.00;99.90;;;;;;5032510;28;20955;-74
2023/12/29 05:30:49;;;;;;;1.63;0.40;;;10.00;99.90;;;;;;5032007;28;20444;-74
2023/12/29 05:33:19;;;;;;;2.57;2.37;;;10.00;99.90;;;;;;5023448;28;20450;-74
2023/12/29 05:35:47;;;;;;;1.23;0.30;;;10.00;99.90;;;;;;5031747;28;20810;-74
2023/12/29 05:38:14;;;;;;;0.50;0.10;;;10.00;99.90;;;;;;5029715;28;20454;-73
2023/12/29 05:40:42;;;;;;;0.50;0.20;;;10.00;99.90;;;;;;5027455;28;20565;-73
2023/12/29 05:43:10;;;;;;;0.50;0.10;;;10.00;99.90;;;;;;5024082;28;20473;-74
2023/12/29 05:45:38;;;;;;;0.50;0.10;;;10.00;99.90;;;;;;5031222;28;20464;-73
2023/12/29 05:48:07;;;;;;;0.50;0.10;;;10.00;99.90;;;;;;5023910;28;20458;-74
2023/12/29 05:50:38;;;;;;;0.50;0.10;;;10.00;99.90;;;;;;5032403;28;20975;-74
2023/12/29 05:53:06;;;;;;;0.60;0.30;;;10.00;99.90;;;;;;5032134;28;20892;-74
2023/12/29 05:55:34;;;;;;;0.50;0.10;;;9.90;99.90;;;;;;5031728;28;20453;-73
2023/12/29 05:58:02;;;;;;;0.50;0.10;;;9.90;99.90;;;;;;5031818;28;21016;-74
2023/12/29 06:00:30;;;;;;;0.77;0.70;;;9.90;99.90;;;;;;5019019;28;20523;-73
2023/12/29 06:02:59;;;;;;;4.47;1.43;;;9.90;99.90;;;;;;5028443;28;21783;-74
2023/12/29 06:05:27;;;;;;;0.50;0.10;;;9.90;99.90;;;;;;5031479;28;20507;-74
2023/12/29 06:07:56;;;;;;;0.50;0.10;;;10.00;99.90;;;;;;5031501;28;20469;-74
2023/12/29 06:10:25;;;;;;;0.50;0.10;;;10.00;99.90;;;;;;5027876;28;20446;-74
2023/12/29 06:12:53;;;;;;;0.60;0.30;;;9.90;99.90;;;;;;5023384;28;20448;-74
2023/12/29 06:15:21;;;;;;;0.50;0.10;;;10.10;99.90;;;;;;5011817;28;20521;-74
2023/12/29 06:17:49;;;;;;;0.50;0.10;;;10.10;99.90;;;;;;5027428;28;20472;-75
2023/12/29 06:20:17;;;;;;;1.37;1.13;;;10.10;99.90;;;;;;5028216;28;20482;-74
2023/12/29 06:22:45;;;;;;;0.90;0.50;;;10.10;99.90;;;;;;5027471;28;20499;-74
2023/12/29 06:25:15;;;;;;;0.80;0.50;;;10.10;99.90;;;;;;5013048;28;20504;-74
2023/12/29 06:27:43;;;;;;;0.50;0.10;;;10.10;99.90;;;;;;5026348;28;20468;-74
2023/12/29 06:30:12;;;;;;;0.50;0.10;;;10.10;99.90;;;;;;5024244;28;21166;-74
2023/12/29 06:32:40;;;;;;;0.90;0.57;;;10.20;99.90;;;;;;5040523;28;20449;-73
2023/12/29 06:35:10;;;;;;;1.20;0.43;;;10.20;99.90;;;;;;5026882;28;20465;-74
2023/12/29 06:37:39;;;;;;;0.90;0.63;;;10.20;99.90;;;;;;5024784;28;20458;-75
2023/12/29 06:40:08;;;;;;;0.50;0.10;;;10.20;99.90;;;;;;5022274;28;20484;-74
2023/12/29 06:42:38;;;;;;;0.70;0.30;;;10.20;99.90;;;;;;5033393;28;20435;-74
2023/12/29 06:45:08;;;;;;;0.50;0.20;;;10.20;99.90;;;;;;5035586;28;20458;-74
2023/12/29 06:47:36;;;;;;;1.00;0.80;;;10.30;99.90;;;;;;5035922;28;20494;-74
2023/12/29 06:50:06;;;;;;;0.50;0.10;;;12.20;99.90;;;;;;5026707;28;20454;-74
2023/12/29 06:52:35;;;;;;;0.50;0.20;;;10.30;99.90;;;;;;5029102;28;20467;-74
2023/12/29 06:55:03;;;;;;;0.50;0.20;;;10.30;99.90;;;;;;5035285;28;20533;-74
2023/12/29 06:57:31;;;;;;;0.50;0.10;;;10.30;99.90;;;;;;5035062;28;20472;-74
2023/12/29 07:00:00;;;;;;;0.50;0.10;;;10.30;99.90;;;;;;5018753;28;20446;-74
2023/12/29 07:02:28;;;;;;;4.40;0.40;;;10.40;99.90;;;;;;5018165;28;20949;-74
2023/12/29 07:04:56;;;;;;;0.50;0.10;;;10.40;99.90;;;;;;5035364;28;20448;-75
2023/12/29 07:07:24;;;;;;;0.60;0.60;;;10.40;99.90;;;;;;5034797;28;20970;-74
2023/12/29 07:09:53;;;;;;;0.50;0.40;;;10.40;99.90;;;;;;5027851;28;20452;-75
2023/12/29 07:12:21;;;;;;;0.67;0.40;;;10.40;99.90;;;;;;5018615;28;20441;-74
2023/12/29 07:14:49;;;;;;;0.50;0.10;;;10.50;99.90;;;;;;5027108;28;20540;-74
2023/12/29 07:17:18;;;;;;;5.50;0.87;;;10.50;99.90;;;;;;5015397;28;20528;-74
2023/12/29 07:19:46;;;;;;;0.50;0.10;;;10.50;99.90;;;;;;5019583;28;20851;-74
2023/12/29 07:22:14;;;;;;;1.47;1.37;;;10.50;99.90;;;;;;5014979;28;20513;-74
2023/12/29 07:24:42;;;;;;;1.93;0.90;;;10.60;99.90;;;;;;5015846;28;20561;-74
2023/12/29 07:27:11;;;;;;;0.50;0.10;;;10.60;99.90;;;;;;5029900;28;20495;-73
2023/12/29 07:29:39;;;;;;;0.50;0.10;;;10.60;99.90;;;;;;5017647;28;20454;-73
2023/12/29 07:32:07;;;;;;;0.50;0.20;;;10.60;99.90;;;;;;5015548;28;21036;-74
2023/12/29 07:34:36;;;;;;;0.50;0.10;;;10.60;99.90;;;;;;5014859;28;20447;-75
2023/12/29 07:37:05;;;;;;;1.77;0.33;;;10.60;99.90;;;;;;5033165;28;20568;-73
2023/12/29 07:39:33;;;;;;;0.50;0.10;;;10.60;99.90;;;;;;5035366;28;20445;-73
2023/12/29 07:42:01;;;;;;;0.50;0.10;;;10.70;99.90;;;;;;5035768;28;20480;-74
2023/12/29 07:44:31;;;;;;;0.60;0.20;;;10.70;99.90;;;;;;5034740;28;20438;-75
2023/12/29 07:46:59;;;;;;;0.50;0.10;;;10.70;99.90;;;;;;5034402;28;20505;-74
2023/12/29 07:49:27;;;;;;;0.50;0.20;;;10.60;99.90;;;;;;5034969;28;20545;-74
2023/12/29 07:51:59;;;;;;;0.60;0.30;;;10.70;99.90;;;;;;5034355;28;20484;-74
2023/12/29 07:54:27;;;;;;;0.60;0.30;;;10.70;99.90;;;;;;5034083;28;20449;-73
2023/12/29 07:56:55;;;;;;;0.70;0.40;;;10.70;99.90;;;;;;5034770;28;20480;-74
2023/12/29 07:59:23;;;;;;;0.50;0.10;;;10.70;99.90;;;;;;5034319;28;20442;-74
2023/12/29 08:01:51;;;;;;;0.50;0.10;;;10.70;99.90;;;;;;5035385;28;20500;-74
2023/12/29 08:04:19;;;;;;;0.50;0.20;;;10.80;99.90;;;;;;5034485;28;20473;-75
2023/12/29 08:06:47;;;;;;;0.50;0.20;;;10.80;99.90;;;;;;5034332;28;20996;-74
2023/12/29 08:09:16;;;;;;;0.50;0.10;;;10.80;99.90;;;;;;5035064;28;21032;-75
2023/12/29 08:11:43;;;;;;;0.50;0.20;;;10.80;99.90;;;;;;5034437;28;20437;-74
2023/12/29 08:14:12;;;;;;;0.50;0.10;;;10.80;99.90;;;;;;5021273;28;20479;-74
2023/12/29 08:16:40;;;;;;;0.50;0.23;;;10.80;99.90;;;;;;5013975;28;20476;-74
2023/12/29 08:19:09;;;;;;;0.53;0.30;;;10.80;99.90;;;;;;5014241;28;20451;-74
2023/12/29 08:21:38;;;;;;;2.13;1.50;;;10.90;99.90;;;;;;5021635;28;20497;-74
2023/12/29 08:24:06;;;;;;;1.80;0.50;;;10.90;99.90;;;;;;5034009;28;20446;-74
2023/12/29 08:26:35;;;;;;;0.73;0.20;;;10.90;99.90;;;;;;5033798;28;20989;-74
2023/12/29 08:29:03;;;;;;;0.50;0.10;;;10.90;99.90;;;;;;5034253;28;21137;-74
2023/12/29 08:31:31;;;;;;;0.70;0.67;;;11.00;99.90;;;;;;5034566;28;20477;-74
2023/12/29 08:33:59;;;;;;;0.50;0.20;;;11.00;99.90;;;;;;5034111;28;20822;-74
2023/12/29 08:36:27;;;;;;;0.50;0.20;;;10.90;99.90;;;;;;5032695;28;20482;-74
2023/12/29 08:38:56;;;;;;;0.50;0.10;;;;;;;;;;5033765;28;20481;-75
2023/12/29 08:41:24;;;;;;;0.50;0.20;;;11.00;99.90;;;;;;5033275;28;20888;-74
2023/12/29 08:43:54;;;;;;;1.63;0.33;;;11.00;99.90;;;;;;5033547;28;20496;-74
2023/12/29 08:46:22;;;;;;;0.50;0.20;;;11.00;99.90;;;;;;5032798;28;21280;-74
2023/12/29 08:48:50;;;;;;;0.50;0.20;;;11.00;99.90;;;;;;5033583;28;20463;-74
2023/12/29 08:51:19;;;;;;;0.70;0.30;;;11.00;99.90;;;;;;5033539;28;20442;-74
2023/12/29 08:53:46;;;;;;;0.50;0.10;;;11.10;99.90;;;;;;5032345;28;20557;-74
2023/12/29 08:56:14;;;;;;;0.50;0.10;;;11.10;99.90;;;;;;5033031;28;20614;-74
2023/12/29 08:58:42;;;;;;;0.50;0.10;;;11.10;99.90;;;;;;5033842;28;20443;-74
2023/12/29 09:01:11;;;;;;;1.43;1.13;;;11.20;99.90;;;;;;5035528;28;20810;-74
2023/12/29 09:03:39;;;;;;;0.50;0.10;;;11.20;99.90;;;;;;5033669;28;20799;-74
2023/12/29 09:06:08;;;;;;;0.70;0.33;;;11.20;99.90;;;;;;5032513;28;20902;-74
2023/12/29 09:08:36;;;;;;;0.50;0.20;;;11.20;99.90;;;;;;5033272;28;20473;-74
2023/12/29 09:11:05;;;;;;;0.63;0.20;;;11.10;99.90;;;;;;5033962;28;20454;-75
2023/12/29 09:13:33;;;;;;;0.50;0.10;;;11.10;99.90;;;;;;5026240;28;20463;-74
2023/12/29 09:16:01;;;;;;;0.50;0.10;;;11.10;99.90;;;;;;5013799;28;20981;-75
2023/12/29 09:18:30;;;;;;;0.60;0.30;;;11.20;99.90;;;;;;5048578;28;20442;-74
2023/12/29 09:21:00;;;;;;;0.50;0.10;;;11.20;99.90;;;;;;5056294;28;20513;-77
2023/12/29 09:23:28;;;;;;;0.50;0.17;;;11.20;99.90;;;;;;5047129;28;20484;-75
2023/12/29 09:25:56;;;;;;;0.60;0.20;;;11.10;99.90;;;;;;5055707;28;20447;-75
2023/12/29 09:28:24;;;;;;;0.50;0.10;;;11.10;99.90;;;;;;5035615;28;20518;-76
2023/12/29 09:30:52;;;;;;;2.40;2.00;;;11.10;99.90;;;;;;5027135;28;20476;-75
2023/12/29 09:33:22;;;;;;;2.40;0.43;;;11.20;99.90;;;;;;5028179;28;20467;-72
2023/12/29 09:35:52;;;;;;;0.90;0.20;;;11.20;99.90;;;;;;5047312;28;20441;-73
2023/12/29 09:38:20;;;;;;;0.60;0.20;;;11.20;99.90;;;;;;5047871;28;20442;-74
2023/12/29 09:40:49;;;;;;;0.50;0.10;;;11.10;99.90;;;;;;5037178;28;20462;-75
2023/12/29 09:43:16;;;;;;;0.50;0.10;;;11.10;99.90;;;;;;5034255;28;20490;-75
2023/12/29 09:45:47;;;;;;;0.60;0.33;;;11.20;99.90;;;;;;5015564;28;20813;-74
2023/12/29 09:48:19;;;;;;;0.50;0.10;;;11.20;99.90;;;;;;5015206;28;20458;-75
2023/12/29 09:50:50;;;;;;;0.50;0.20;;;11.20;99.90;;;;;;5025415;28;20455;-74
2023/12/29 09:53:21;;;;;;;0.50;0.10;;;11.20;99.90;;;;;;5030738;28;20533;-74
2023/12/29 09:55:49;;;;;;;0.60;0.20;;;11.20;99.90;;;;;;5011786;28;20442;-75
2023/12/29 09:58:19;;;;;;;0.50;0.10;;;11.30;99.90;;;;;;5023999;28;20544;-75
2023/12/29 10:00:50;;;;;;;0.50;0.20;;;11.30;99.90;;;;;;5018616;28;20854;-75
2023/12/29 10:03:18;;;;;;;0.50;0.30;;;11.30;99.90;;;;;;5012555;28;20540;-74
2023/12/29 10:05:51;;;;;;;1.50;1.40;;;11.30;99.90;;;;;;5018473;28;20474;-75
2023/12/29 10:08:23;;;;;;;0.50;0.10;;;11.30;99.90;;;;;;5032837;28;20454;-74
2023/12/29 10:10:51;;;;;;;0.50;0.20;;;11.30;99.90;;;;;;5018826;28;20529;-73
2023/12/29 10:13:21;;;;;;;0.60;0.20;;;11.40;99.90;;;;;;5029194;28;20513;-74
2023/12/29 10:15:55;;;;;;;0.60;0.20;;;11.40;99.90;;;;;;5012417;28;20447;-75
2023/12/29 10:18:31;;;;;;;1.20;0.20;;;11.40;99.90;;;;;;5012339;28;20980;-74
2023/12/29 10:21:08;;;;;;;0.50;0.10;;;11.40;99.90;;;;;;5013193;28;20443;-76
2023/12/29 10:23:43;;;;;;;1.27;0.60;;;11.40;99.90;;;;;;5021958;28;20576;-74
2023/12/29 10:26:12;;;;;;;0.60;0.30;;;11.40;99.90;;;;;;5024526;28;20469;-75
2023/12/29 10:28:40;;;;;;;0.87;0.67;;;11.40;99.90;;;;;;5030308;28;20469;-73
2023/12/29 10:31:15;;;;;;;0.50;0.10;;;11.40;99.90;;;;;;5035011;28;20439;-75
2023/12/29 10:33:43;;;;;;;0.70;0.60;;;11.40;99.90;;;;;;5032721;28;20450;-75
2023/12/29 10:36:11;;;;;;;0.70;0.30;;;11.40;99.90;;;;;;5033320;28;20549;-74
2023/12/29 10:38:42;;;;;;;0.50;0.13;;;11.30;99.90;;;;;;5033490;28;20548;-75
2023/12/29 10:41:14;;;;;;;0.60;0.40;;;11.30;99.90;;;;;;5016511;28;20503;-75
2023/12/29 10:43:43;;;;;;;0.50;0.20;;;11.30;99.90;;;;;;5029323;28;20505;-75
2023/12/29 10:46:12;;;;;;;3.17;1.00;;;11.30;99.90;;;;;;5027551;28;20909;-75
2023/12/29 10:48:40;;;;;;;6.03;1.37;;;11.30;99.90;;;;;;5015828;28;20451;-74
2023/12/29 10:51:09;;;;;;;0.50;0.10;;;11.30;99.90;;;;;;5023640;28;20458;-74
2023/12/29 10:53:38;;;;;;;0.60;0.40;;;11.40;99.90;;;;;;5024041;28;20464;-74
2023/12/29 10:56:19;;;;;;;6.93;0.37;;;11.40;99.90;;;;;;5034799;28;20469;-73
2023/12/29 10:58:59;;;;;;;0.60;0.20;;;11.40;99.90;;;;;;5028451;28;20450;-75
2023/12/29 11:01:27;;;;;;;0.50;0.10;;;11.40;99.90;;;;;;5033155;28;20535;-75
2023/12/29 11:04:00;;;;;;;0.60;0.37;;;11.50;99.90;;;;;;5033889;28;20569;-77
2023/12/29 11:06:29;;;;;;;0.60;0.40;;;;;;;;;;5032780;28;20488;-75
2023/12/29 11:08:57;;;;;;;2.63;1.40;;;11.60;99.90;;;;;;5019698;28;20815;-74
2023/12/29 11:11:27;;;;;;;0.80;0.70;;;11.60;99.90;;;;;;5030845;28;21582;-74
2023/12/29 11:13:56;;;;;;;0.50;0.20;;;11.50;99.90;;;;;;5015307;28;20450;-74
2023/12/29 11:16:25;;;;;;;0.50;0.10;;;11.50;99.90;;;;;;5024634;28;20477;-74
2023/12/29 11:18:55;;;;;;;0.50;0.20;;;11.50;99.90;;;;;;5034183;28;20823;-77
2023/12/29 11:21:26;;;;;;;0.70;0.27;;;11.50;99.90;;;;;;5025069;28;20430;-76
2023/12/29 11:23:54;;;;;;;0.60;0.30;;;11.50;99.90;;;;;;5020900;28;20543;-75
2023/12/29 11:26:22;;;;;;;0.53;0.27;;;11.50;99.90;;;;;;5033206;28;20859;-76
2023/12/29 11:28:53;;;;;;;0.60;0.30;;;11.50;99.90;;;;;;5028874;28;20499;-75
2023/12/29 11:31:22;;;;;;;0.50;0.20;;;11.50;99.90;;;;;;5029269;28;20482;-73
2023/12/29 11:33:54;;;;;;;0.60;0.20;;;11.50;99.90;;;;;;5024253;28;20941;-75
2023/12/29 11:36:28;;;;;;;0.50;0.10;;;11.50;99.90;;;;;;5029209;28;20546;-74
2023/12/29 11:39:07;;;;;;;2.10;1.90;;;11.50;99.90;;;;;;5034860;28;20510;-77
2023/12/29 11:41:43;;;;;;;0.50;0.20;;;11.50;99.90;;;;;;5028782;28;20546;-75
2023/12/29 11:44:12;;;;;;;0.60;0.37;;;11.60;99.90;;;;;;5015442;28;20541;-75
2023/12/29 11:46:43;;;;;;;0.70;0.40;;;11.60;99.90;;;;;;5028566;28;20464;-75
2023/12/29 11:49:11;;;;;;;0.50;0.10;;;11.60;99.90;;;;;;5020402;28;20539;-74
2023/12/29 11:51:43;;;;;;;0.83;0.20;;;11.60;99.90;;;;;;5018359;28;20512;-75
2023/12/29 11:54:21;;;;;;;15.47;1.23;;;11.60;99.90;;;;;;5018470;28;20437;-74
2023/12/29 11:56:49;;;;;;;0.50;0.20;;;11.60;99.90;;;;;;5019625;28;20583;-73
2023/12/29 11:59:20;;;;;;;4.50;3.20;;;11.60;99.90;;;;;;5032839;28;20476;-75
2023/12/29 12:01:49;;;;;;;0.50;0.20;;;11.70;99.90;;;;;;5021301;28;20812;-77
2023/12/29 12:04:40;;;;;;;0.50;0.23;;;12.10;99.90;;;;;;5014751;28;20579;-74
2023/12/29 12:07:14;;;;;;;1.47;0.87;;;11.70;99.90;;;;;;5014876;28;20479;-75
2023/12/29 12:09:43;;;;;;;1.07;0.97;;;;;;;;;;5022217;28;20451;-76
2023/12/29 12:12:11;;;;;;;0.50;0.20;;;11.80;99.90;;;;;;5031021;28;20473;-74
2023/12/29 12:14:48;;;;;;;0.60;0.30;;;11.80;99.90;;;;;;5023035;28;20439;-76
2023/12/29 12:17:33;;;;;;;0.60;0.23;;;11.80;99.90;;;;;;5014157;28;20523;-76
2023/12/29 12:20:02;;;;;;;0.50;0.20;;;11.80;99.90;;;;;;5014034;28;20525;-74
2023/12/29 12:22:32;;;;;;;0.60;0.27;;;11.80;99.90;;;;;;5024098;28;20482;-77
2023/12/29 12:25:06;;;;;;;0.90;0.40;;;11.70;99.90;;;;;;5033799;28;20612;-76
2023/12/29 12:27:38;;;;;;;1.03;0.40;;;11.70;99.90;;;;;;5025483;28;20482;-74
2023/12/29 12:30:09;;;;;;;0.70;0.40;;;11.80;99.90;;;;;;5018859;28;20531;-75
2023/12/29 12:32:38;;;;;;;0.50;0.20;;;;;;;;;;5021690;28;20451;-75
2023/12/29 12:35:15;;;;;;;0.77;0.53;;;11.90;99.90;;;;;;5029764;28;20519;-72
2023/12/29 12:37:46;;;;;;;0.57;0.33;;;11.90;99.90;;;;;;5026219;28;20552;-76
2023/12/29 12:40:26;;;;;;;0.50;0.10;;;11.90;99.90;;;;;;5029046;28;20493;-75
2023/12/29 12:42:54;;;;;;;0.60;0.30;;;12.00;99.90;;;;;;5028147;28;20778;-75
2023/12/29 12:45:26;;;;;;;5.10;1.23;;;12.10;99.90;;;;;;5016577;28;20495;-76
2023/12/29 12:48:01;;;;;;;0.70;0.40;;;12.10;99.90;;;;;;5014250;28;20985;-74
2023/12/29 12:50:29;;;;;;;0.80;0.63;;;12.10;99.90;;;;;;5031408;28;20446;-75
2023/12/29 12:52:58;;;;;;;0.80;0.30;;;12.10;99.90;;;;;;5033402;28;20521;-74
2023/12/29 12:55:27;;;;;;;0.50;0.10;;;12.10;99.90;;;;;;5024708;28;21022;-73
2023/12/29 12:57:56;;;;;;;0.50;0.10;;;12.00;99.90;;;;;;5033717;28;20490;-74
2023/12/29 13:00:26;;;;;;;0.53;0.23;;;12.10;99.90;;;;;;5033015;28;20505;-74